Airfield :
LOGIN :

Register | Disclaimer

   EN    FR    IT 

 










Legend :    VFR   Marginal VFR   IFR   Intensive IFR   Very Intensive IFR
Visi :
Ceiling :
>= 8 km
>= 3000ft
5 to 8 km
1000 to 3000 ft
1500m to 5 km
500 to 1000 ft
800 to 1500m
200 to 500 ft
< 800m
< 200 ft
Symbols :   Thunderstorms  Fog  Heavy snow  Heavy precipitations  Wind > 20 kt
SIGMETs :     Misc.  Thunderstorms  Icing  Turbulence  Mountain Waves  Volcanic Ashes






- Airport Elevation : 1682 ft
- IATA code : VIT


LEVT - Vitoria Gasteiz

CURRENT METAR :
  • 101330Z 22009KT 190V250 CAVOK 10/04 Q1026

EXPIRED METARs :
  • 101300Z 21010KT CAVOK 10/04 Q1026
  • 101230Z 21011KT 170V230 CAVOK 09/05 Q1027
  • 101200Z 22012KT CAVOK 09/05 Q1028
  • 101130Z 22008KT 190V250 CAVOK 09/05 Q1028
  • 101100Z 20003KT 160V270 CAVOK 08/05 Q1029

TAF TAF LEVT
Valid from the 10 at 12:00 until the 11 at 12:00 UTC


101100Z 1012/1112 VRB05KT 9999 SCT030 TX11/1014Z TNM00/1105Z
BECMG 1106/1109 30010KT
TEMPO 1104/1112 3000 RA BKN010



MET'MAP, your aeronautical weather chart ! - Copyright ORBIFLY December 2007 - Disclaimer

ORBIFLY MET'MAP TEAM :

Programming & Development : Alexandra Zaïnal
Concept & original design : Baudouin d'Aumeries
Assistance for programming : Marc-Olivier Méhu
Technical & hardware support : Manuel Goepfert

Contact : metmap@orbifly.com




SOURCES & CREDITS :

   NOAA